Time;durP1;ratioP1;P1;durP2;ratioP2;P2;SDS_P1;SDS_P2;PMS_P1;PMS_P2;Temp;Humidity;BMP_temperature;BMP_pressure;BME280_temperature;BME280_humidity;BME280_pressure;Samples;Min_cycle;Max_cycle;Signal;HPM_P1;HPM_P2
2023/12/23 00:00:45;;;;;;;4.60;0.90;;;;;;;0.94;65.08;98166.23;106794;1284;58206;-64
2023/12/23 00:03:31;;;;;;;6.10;2.00;;;;;;;0.90;65.09;98171.20;106611;1284;60375;-60
2023/12/23 00:06:17;;;;;;;5.10;1.00;;;;;;;0.85;65.12;98175.02;106808;1284;73467;-60
2023/12/23 00:09:03;;;;;;;9.00;0.80;;;;;;;0.80;65.22;98173.23;106807;1285;67255;-59
2023/12/23 00:11:50;;;;;;;6.50;0.90;;;;;;;0.79;65.23;98173.08;106780;1283;71236;-59
2023/12/23 00:14:36;;;;;;;7.60;1.00;;;;;;;0.74;65.37;98179.77;106561;1284;59415;-59
2023/12/23 00:17:36;;;;;;;7.60;1.00;;;;;;;0.71;65.37;98187.61;94596;1286;10003935;-58
2023/12/23 00:20:42;;;;;;;10.30;0.90;;;;;;;0.77;65.40;98196.68;69806;1284;20068091;-59
2023/12/23 00:23:29;;;;;;;1033.50;360.40;;;;;;;0.75;65.35;98196.38;106542;1286;68722;-60
2023/12/23 00:26:15;;;;;;;5.10;1.10;;;;;;;0.79;65.35;98194.10;106590;1285;71205;-59
2023/12/23 00:29:00;;;;;;;9.20;1.40;;;;;;;0.77;65.44;98197.19;106602;1285;58548;-60
2023/12/23 00:31:46;;;;;;;5.70;1.00;;;;;;;0.75;65.43;98202.98;105969;1285;60129;-56
2023/12/23 00:34:33;;;;;;;;;;;;;;;0.72;65.49;98210.16;105275;1285;72401;-58
2023/12/23 00:37:19;;;;;;;4.40;0.60;;;;;;;0.67;65.58;98221.58;105289;1285;70994;-58
2023/12/23 00:40:06;;;;;;;5.60;0.90;;;;;;;0.65;65.59;98229.73;105231;1286;70197;-57
2023/12/23 00:42:53;;;;;;;24.80;2.60;;;;;;;0.67;65.66;98235.15;105640;1288;60271;-55
2023/12/23 00:45:39;;;;;;;3.30;0.60;;;;;;;0.67;65.63;98235.64;105414;1284;63766;-58
2023/12/23 00:48:25;;;;;;;7.40;1.30;;;;;;;0.66;65.65;98243.47;105297;1285;72369;-58
2023/12/23 00:51:11;;;;;;;7.20;1.10;;;;;;;0.62;65.71;98247.94;105350;1285;69937;-58
2023/12/23 00:53:58;;;;;;;33.70;8.10;;;;;;;0.57;65.82;98248.68;105270;1285;71143;-56
2023/12/23 00:56:44;;;;;;;9.90;1.10;;;;;;;0.59;65.90;98249.67;105314;1288;60399;-56
2023/12/23 00:59:30;;;;;;;;;;;;;;;0.60;65.96;98261.17;105317;1285;59383;-57
2023/12/23 01:02:16;;;;;;;6.00;1.40;;;;;;;0.59;66.00;98265.25;105267;1285;72393;-57
2023/12/23 01:05:02;;;;;;;;;;;;;;;0.59;66.03;98264.91;105331;1285;67291;-58
2023/12/23 01:07:49;;;;;;;46.50;17.40;;;;;;;0.60;66.07;98271.70;106586;1286;71194;-59
2023/12/23 01:10:34;;;;;;;7.90;1.10;;;;;;;0.62;66.10;98264.71;106613;1284;58169;-59
2023/12/23 01:13:20;;;;;;;6.80;1.00;;;;;;;0.63;66.16;98271.82;106605;1285;59063;-58
2023/12/23 01:16:07;;;;;;;23.50;5.40;;;;;;;0.63;66.20;98281.65;106644;1285;72993;-57
2023/12/23 01:18:53;;;;;;;;;;;;;;;0.67;66.29;98286.35;106588;1285;67414;-59
2023/12/23 01:21:39;;;;;;;5.10;0.80;;;;;;;0.66;66.27;98293.14;106634;1285;71274;-58
2023/12/23 01:24:25;;;;;;;5.90;1.50;;;;;;;0.61;66.30;98301.34;106201;1285;59131;-56
2023/12/23 01:27:12;;;;;;;664.10;183.10;;;;;;;0.58;66.38;98313.09;105358;1285;61641;-58
2023/12/23 01:29:58;;;;;;;7.20;1.30;;;;;;;0.64;66.47;98315.20;105359;1285;78444;-57
2023/12/23 01:32:44;;;;;;;;;;;;;;;0.62;66.57;98315.73;105370;1285;67248;-56
2023/12/23 01:35:30;;;;;;;7.10;1.00;;;;;;;0.61;66.62;98321.17;105314;1285;71104;-54
2023/12/23 01:38:17;;;;;;;9.30;0.80;;;;;;;0.58;66.79;98330.20;105222;1285;59183;-58
2023/12/23 01:41:03;;;;;;;;;;;;;;;0.54;66.94;98330.59;105487;1285;63122;-59
2023/12/23 01:43:49;;;;;;;61.60;33.20;;;;;;;0.55;66.85;98333.30;105396;1285;71367;-57
2023/12/23 01:46:36;;;;;;;5.10;1.00;;;;;;;0.56;66.87;98328.53;105470;1285;67240;-58
2023/12/23 01:49:23;;;;;;;134.00;43.80;;;;;;;0.52;67.08;98330.30;105395;1284;74081;-59
2023/12/23 01:52:10;;;;;;;8.40;1.20;;;;;;;0.53;67.12;98339.41;105424;1285;60456;-59
2023/12/23 01:54:57;;;;;;;4.60;1.00;;;;;;;0.52;67.23;98351.32;105627;1284;60437;-56
2023/12/23 01:57:43;;;;;;;5.00;0.90;;;;;;;0.52;67.24;98356.21;105460;1285;74404;-58
2023/12/23 02:00:29;;;;;;;;;;;;;;;0.54;67.28;98365.33;105492;1285;69230;-59
2023/12/23 02:03:17;;;;;;;6.10;0.90;;;;;;;0.54;67.29;98363.48;105411;1285;71254;-59
2023/12/23 02:06:04;;;;;;;7.10;0.90;;;;;;;0.50;67.32;98372.04;105473;1285;60323;-57
2023/12/23 02:08:50;;;;;;;7.70;1.10;;;;;;;0.45;67.27;98374.97;105416;1285;62903;-58
2023/12/23 02:12:11;;;;;;;12.00;1.40;;;;;;;0.37;67.30;98378.28;105481;1285;74833;-60
2023/12/23 02:15:04;;;;;;;2.60;1.00;;;;;;;0.32;67.55;98380.19;105398;1284;67345;-58
2023/12/23 02:18:01;;;;;;;193.70;43.70;;;;;;;0.31;67.74;98383.25;105451;1284;72236;-59
2023/12/23 02:20:51;;;;;;;11.20;1.90;;;;;;;0.33;67.60;98396.96;105424;1285;60562;-59
2023/12/23 02:23:37;;;;;;;4.70;1.20;;;;;;;0.31;67.89;98401.21;105482;1285;60347;-58
2023/12/23 02:26:25;;;;;;;;;;;;;;;0.34;67.85;98411.70;105473;1285;73139;-58
2023/12/23 02:29:12;;;;;;;7.60;1.10;;;;;;;0.31;68.03;98414.27;105478;1285;71184;-55
2023/12/23 02:32:01;;;;;;;162.20;40.30;;;;;;;0.30;67.94;98411.23;106647;1284;71343;-59
2023/12/23 02:34:47;;;;;;;5.40;1.20;;;;;;;0.30;67.96;98412.57;105867;1284;60344;-59
2023/12/23 02:37:33;;;;;;;7.40;1.20;;;;;;;0.25;68.08;98415.34;105391;1285;61241;-59
2023/12/23 02:40:19;;;;;;;;;;;;;;;0.23;68.26;98418.92;105446;1285;75142;-60
2023/12/23 02:43:06;;;;;;;9.60;1.80;;;;;;;0.26;68.46;98423.29;105432;1285;70869;-57
2023/12/23 02:45:52;;;;;;;8.20;1.50;;;;;;;0.23;68.51;98432.13;105460;1285;75121;-59
2023/12/23 02:48:38;;;;;;;;;;;;;;;0.25;68.54;98434.83;105387;1286;60453;-59
2023/12/23 02:51:25;;;;;;;5.70;0.80;;;;;;;0.21;68.65;98442.14;105528;1285;60370;-58
2023/12/23 02:54:11;;;;;;;5.50;0.90;;;;;;;0.22;68.79;98441.13;105373;1285;72368;-59
2023/12/23 02:56:57;;;;;;;;;;;;;;;0.25;68.98;98448.38;105424;1285;67274;-57
2023/12/23 02:59:44;;;;;;;56.70;42.40;;;;;;;0.27;69.17;98449.37;105485;1284;71173;-58
2023/12/23 03:02:30;;;;;;;9.40;1.10;;;;;;;0.31;69.46;98451.38;105341;1289;60405;-57
2023/12/23 03:05:16;;;;;;;6.40;1.00;;;;;;;0.29;69.06;98462.07;105438;1285;60454;-58
2023/12/23 03:08:02;;;;;;;;;;;;;;;0.28;69.36;98463.09;105593;1286;72393;-60
2023/12/23 03:10:48;;;;;;;4.90;0.90;;;;;;;0.26;69.43;98461.58;105609;1286;67279;-59
2023/12/23 03:13:35;;;;;;;10.60;1.00;;;;;;;0.23;69.79;98465.84;105549;1284;71166;-59
2023/12/23 03:16:21;;;;;;;;;;;;;;;0.23;69.78;98467.38;105368;1285;60588;-58
2023/12/23 03:19:09;;;;;;;3.60;1.30;;;;;;;0.21;69.78;98470.44;105472;1286;59345;-56
2023/12/23 03:21:56;;;;;;;1177.20;292.90;;;;;;;0.24;69.92;98473.96;105425;1285;72481;-55
2023/12/23 03:24:42;;;;;;;;;;;;;;;0.28;70.09;98481.56;105523;1285;69966;-58
2023/12/23 03:27:28;;;;;;;6.50;1.10;;;;;;;0.28;69.86;98484.78;105369;1285;71284;-57
2023/12/23 03:30:15;;;;;;;;;;;;;;;0.27;70.36;98488.85;105504;1288;60318;-58
2023/12/23 03:33:01;;;;;;;8.70;0.90;;;;;;;0.36;70.32;98498.42;105453;1285;60315;-56
2023/12/23 03:35:47;;;;;;;10.80;1.60;;;;;;;0.36;70.08;98506.73;105517;1285;72439;-57
2023/12/23 03:38:34;;;;;;;7.80;1.00;;;;;;;0.33;70.71;98504.39;105611;1285;67204;-60
2023/12/23 03:41:20;;;;;;;;;;;;;;;0.37;70.76;98501.48;105472;1285;70932;-58
2023/12/23 03:44:06;;;;;;;5.60;1.20;;;;;;;0.37;70.67;98506.90;105475;1284;60609;-58
2023/12/23 03:46:52;;;;;;;133.60;47.80;;;;;;;0.37;70.69;98504.02;105382;1285;60425;-57
2023/12/23 03:49:38;;;;;;;;;;;;;;;0.34;70.83;98509.80;105479;1285;72395;-57
2023/12/23 03:52:25;;;;;;;5.40;0.70;;;;;;;0.35;70.62;98513.19;105449;1285;67310;-59
2023/12/23 03:55:12;;;;;;;5.60;1.10;;;;;;;0.30;70.50;98515.27;105409;1285;71206;-60
2023/12/23 03:58:02;;;;;;;6.80;0.90;;;;;;;0.29;70.86;98516.46;105965;1284;60508;-60
2023/12/23 04:00:49;;;;;;;4.00;1.40;;;;;;;0.30;70.79;98515.44;105480;1288;62155;-60
2023/12/23 04:03:35;;;;;;;;;;;;;;;0.33;70.86;98534.38;105405;1285;72373;-57
2023/12/23 04:06:21;;;;;;;5.50;2.80;;;;;;;0.35;70.95;98534.71;105480;1285;69018;-57
2023/12/23 04:09:09;;;;;;;;;;;;;;;0.36;70.79;98532.50;105494;1284;71259;-58
2023/12/23 04:11:55;;;;;;;703.20;147.40;;;;;;;0.38;70.78;98546.20;105460;1285;61160;-59
2023/12/23 04:14:42;;;;;;;;;;;;;;;0.38;70.78;98551.97;105495;1285;62335;-56
2023/12/23 04:17:28;;;;;;;3.70;0.50;;;;;;;0.34;70.72;98562.67;105253;1285;72443;-58
2023/12/23 04:20:14;;;;;;;5.40;0.40;;;;;;;0.32;70.88;98571.17;105374;1285;67242;-55
2023/12/23 04:23:01;;;;;;;2.00;0.70;;;;;;;0.31;70.85;98568.63;105540;1286;73182;-57
2023/12/23 04:25:47;;;;;;;;;;;;;;;0.31;70.99;98581.67;105502;1285;60226;-59
2023/12/23 04:28:33;;;;;;;3.10;0.80;;;;;;;0.37;70.98;98577.90;105471;1285;60465;-55
2023/12/23 04:31:19;;;;;;;;;;;;;;;0.40;70.81;98587.39;105502;1285;72421;-56
2023/12/23 04:34:06;;;;;;;6.00;0.60;;;;;;;0.40;70.76;98598.73;105510;1285;67275;-59
2023/12/23 04:36:52;;;;;;;;;;;;;;;0.43;70.72;98605.48;105481;1286;71688;-56
2023/12/23 04:39:38;;;;;;;4.20;1.00;;;;;;;0.48;70.72;98605.62;105467;1288;60338;-57
2023/12/23 04:42:24;;;;;;;6.70;0.50;;;;;;;0.47;70.57;98616.98;105546;1285;60238;-60
2023/12/23 04:45:10;;;;;;;;;;;;;;;0.46;70.65;98625.12;105442;1285;75195;-56
2023/12/23 04:47:57;;;;;;;7.60;0.60;;;;;;;0.46;70.59;98631.90;105464;1286;68150;-56
2023/12/23 04:50:43;;;;;;;;;;;;;;;0.45;70.58;98635.13;105485;1285;70235;-58
2023/12/23 04:53:29;;;;;;;3.90;1.20;;;;;;;0.44;70.54;98631.23;105489;1285;60361;-58
2023/12/23 04:56:15;;;;;;;;;;;;;;;0.52;70.42;98640.65;105458;1285;60519;-58
2023/12/23 04:59:02;;;;;;;2.80;0.80;;;;;;;0.56;70.41;98656.88;105483;1285;72370;-57
2023/12/23 05:01:49;;;;;;;;;;;;;;;0.56;70.40;98658.75;105489;1284;67222;-57
2023/12/23 05:04:35;;;;;;;567.00;321.40;;;;;;;0.61;70.28;98664.13;105472;1286;71219;-58
2023/12/23 05:07:21;;;;;;;4.40;0.90;;;;;;;0.70;70.23;98674.77;105483;1284;60603;-57
2023/12/23 05:10:08;;;;;;;4.70;0.60;;;;;;;0.76;70.15;98670.65;105427;1284;63274;-59
2023/12/23 05:12:54;;;;;;;3.40;0.80;;;;;;;0.77;69.94;98673.00;105499;1284;72747;-60
2023/12/23 05:15:40;;;;;;;2.90;0.60;;;;;;;0.84;69.98;98676.17;105491;1285;70012;-59
2023/12/23 05:18:27;;;;;;;118.90;37.20;;;;;;;0.84;69.78;98672.10;105488;1285;71390;-57
2023/12/23 05:21:13;;;;;;;;;;;;;;;0.90;69.50;98675.61;105479;1284;60344;-56
2023/12/23 05:23:59;;;;;;;5.20;1.20;;;;;;;0.95;69.34;98677.27;105239;1286;321697;-58
2023/12/23 05:26:45;;;;;;;12.50;1.30;;;;;;;0.95;69.38;98683.55;105511;1285;72545;-59
2023/12/23 05:29:33;;;;;;;12.50;1.30;;;;;;;0.93;69.60;98686.45;55146;1288;20001459;-59
2023/12/23 05:32:39;;;;;;;4.20;0.80;;;;;;;0.93;69.46;98694.41;99265;1288;10076190;-59
2023/12/23 05:35:25;;;;;;;2.20;0.60;;;;;;;0.93;69.50;98689.34;105663;1285;60997;-60
2023/12/23 05:38:11;;;;;;;5.40;0.80;;;;;;;0.94;69.57;98694.08;105357;1285;60363;-64
2023/12/23 05:40:57;;;;;;;14.50;8.20;;;;;;;0.91;69.62;98700.38;105338;1285;76556;-59
2023/12/23 05:43:43;;;;;;;6.40;0.70;;;;;;;0.96;69.60;98704.58;105393;1285;69979;-57
2023/12/23 05:46:31;;;;;;;;;;;;;;;1.01;69.70;98708.27;105433;1285;71330;-58
2023/12/23 05:49:17;;;;;;;4.70;1.00;;;;;;;1.02;69.67;98710.64;105497;1284;61116;-58
2023/12/23 05:52:03;;;;;;;;;;;;;;;1.02;69.59;98708.09;105457;1285;60913;-57
2023/12/23 05:54:49;;;;;;;3.40;0.60;;;;;;;1.05;69.23;98709.73;105488;1285;72404;-58
2023/12/23 05:57:36;;;;;;;;;;;;;;;1.11;69.37;98702.89;105445;1285;70014;-56
2023/12/23 06:00:22;;;;;;;2.70;0.60;;;;;;;1.10;69.29;98701.20;105378;1286;74061;-59
2023/12/23 06:03:08;;;;;;;;;;;;;;;1.14;69.38;98706.08;105445;1286;60338;-57
2023/12/23 06:05:54;;;;;;;3.60;0.60;;;;;;;1.16;69.51;98700.30;105478;1285;60479;-60
2023/12/23 06:08:41;;;;;;;12.10;1.90;;;;;;;1.18;69.51;98704.19;105488;1286;72373;-58
2023/12/23 06:11:28;;;;;;;;;;;;;;;1.22;69.40;98701.27;105484;1288;67208;-58
2023/12/23 06:14:15;;;;;;;52.50;30.80;;;;;;;1.26;69.21;98708.20;105414;1285;70177;-55
2023/12/23 06:17:01;;;;;;;2.90;0.50;;;;;;;1.33;69.22;98703.20;105399;1285;60322;-58
2023/12/23 06:19:47;;;;;;;52.80;32.90;;;;;;;1.37;69.10;98701.80;105436;1285;60370;-58
2023/12/23 06:22:33;;;;;;;;;;;;;;;1.41;69.14;98706.35;105320;1285;72497;-59
2023/12/23 06:25:20;;;;;;;3.40;0.80;;;;;;;1.42;69.23;98701.41;105361;1285;67717;-58
2023/12/23 06:28:06;;;;;;;7.30;6.70;;;;;;;1.44;69.11;98701.74;105381;1288;73622;-58
2023/12/23 06:30:52;;;;;;;2.50;0.40;;;;;;;1.45;69.01;98705.46;105447;1284;60331;-58
2023/12/23 06:33:38;;;;;;;5.40;0.50;;;;;;;1.48;68.85;98708.65;105452;1285;60324;-58
2023/12/23 06:36:25;;;;;;;251.80;141.00;;;;;;;1.49;68.67;98700.49;105454;1285;76272;-59
2023/12/23 06:39:11;;;;;;;;;;;;;;;1.49;68.70;98699.99;105426;1285;67654;-59
2023/12/23 06:41:57;;;;;;;6.00;0.70;;;;;;;1.45;68.62;98696.97;105410;1285;73943;-57
2023/12/23 06:44:43;;;;;;;2.40;0.60;;;;;;;1.43;68.76;98711.41;105452;1285;60346;-59
2023/12/23 06:47:30;;;;;;;2.60;0.50;;;;;;;1.43;68.85;98704.97;105414;1286;61671;-58
2023/12/23 06:50:16;;;;;;;1.80;0.40;;;;;;;1.43;68.80;98707.69;105444;1285;72419;-58
2023/12/23 06:53:02;;;;;;;4.20;0.60;;;;;;;1.42;68.79;98693.95;105465;1285;67657;-59
2023/12/23 06:55:48;;;;;;;;;;;;;;;1.39;68.74;98685.84;105471;1288;74701;-59
2023/12/23 06:58:35;;;;;;;3.80;0.50;;;;;;;1.39;68.74;98683.11;105387;1286;60457;-59
2023/12/23 07:01:21;;;;;;;;;;;;;;;1.35;68.75;98677.89;105429;1288;60400;-59
2023/12/23 07:04:07;;;;;;;1.90;0.90;;;;;;;1.28;68.79;98679.65;105379;1286;75075;-60
2023/12/23 07:06:54;;;;;;;2.60;0.60;;;;;;;1.19;68.84;98679.91;105456;1285;67272;-56
2023/12/23 07:09:40;;;;;;;;;;;;;;;1.12;68.93;98683.20;105366;1285;71228;-58
2023/12/23 07:12:26;;;;;;;1.60;0.70;;;;;;;1.04;68.99;98689.39;105377;1288;60531;-59
2023/12/23 07:15:13;;;;;;;6.20;0.80;;;;;;;0.98;69.01;98688.45;105454;1287;59115;-57
2023/12/23 07:17:59;;;;;;;4.40;1.20;;;;;;;0.95;69.14;98688.46;105357;1285;72482;-55
2023/12/23 07:20:47;;;;;;;2.70;0.80;;;;;;;0.95;69.21;98687.95;105280;1285;68415;-63
2023/12/23 07:23:33;;;;;;;34.00;15.90;;;;;;;0.98;69.24;98693.36;105374;1288;71538;-58
2023/12/23 07:26:20;;;;;;;;;;;;;;;1.03;69.26;98684.49;105370;1286;60593;-59
2023/12/23 07:29:07;;;;;;;1.90;0.50;;;;;;;1.09;69.28;98682.55;105368;1285;62817;-57
2023/12/23 07:31:53;;;;;;;86.80;12.80;;;;;;;1.15;69.20;98688.25;97865;1288;5003612;-59
2023/12/23 07:34:40;;;;;;;4.20;1.10;;;;;;;1.21;69.16;98691.60;105078;1285;389017;-60
2023/12/23 07:37:25;;;;;;;;;;;;;;;1.22;69.13;98694.98;106092;1285;71122;-57
2023/12/23 07:40:12;;;;;;;205.50;129.80;;;;;;;1.28;69.21;98694.60;102192;1287;5004172;-58
2023/12/23 07:42:58;;;;;;;2.60;0.80;;;;;;;1.32;69.22;98691.16;106676;1284;58830;-59
2023/12/23 07:45:44;;;;;;;3.40;0.60;;;;;;;1.34;69.18;98682.82;106300;1285;72788;-59
2023/12/23 07:48:31;;;;;;;2.90;0.80;;;;;;;1.33;69.19;98680.11;105432;1285;70015;-58
2023/12/23 07:51:19;;;;;;;2.80;0.90;;;;;;;1.36;69.27;98675.16;105355;1286;71269;-58
2023/12/23 07:54:05;;;;;;;2.00;0.70;;;;;;;1.36;69.29;98674.31;105567;1286;60433;-59
2023/12/23 07:56:51;;;;;;;2.80;0.70;;;;;;;1.47;69.45;98664.68;105236;1285;60400;-57
2023/12/23 07:59:39;;;;;;;218.10;131.60;;;;;;;1.67;69.18;98677.35;105431;1286;72446;-56
2023/12/23 08:02:25;;;;;;;3.90;0.90;;;;;;;1.73;68.89;98674.73;105265;1286;71206;-57
2023/12/23 08:05:12;;;;;;;3.70;0.80;;;;;;;1.70;68.85;98676.63;105358;1284;71197;-59
2023/12/23 08:07:58;;;;;;;24.80;12.10;;;;;;;1.75;68.87;98677.60;105326;1286;60479;-57
2023/12/23 08:10:45;;;;;;;8.40;1.30;;;;;;;1.87;68.69;98679.33;105334;1284;61710;-60
2023/12/23 08:13:31;;;;;;;9.60;4.20;;;;;;;2.01;68.36;98667.25;105295;1284;72356;-58
2023/12/23 08:16:17;;;;;;;3.30;0.70;;;;;;;2.00;68.32;98658.95;105487;1288;66532;-60
2023/12/23 08:19:04;;;;;;;6.80;1.00;;;;;;;1.91;68.58;98652.60;104918;1286;617672;-58
2023/12/23 08:21:50;;;;;;;11.00;1.00;;;;;;;1.88;68.85;98659.43;105277;1286;60048;-57
2023/12/23 08:24:36;;;;;;;3.80;2.60;;;;;;;1.98;68.91;98661.52;105457;1286;61841;-59
2023/12/23 08:27:22;;;;;;;5.40;1.20;;;;;;;2.42;68.32;98655.27;105392;1285;75491;-57
2023/12/23 08:30:09;;;;;;;5.70;1.40;;;;;;;2.75;68.06;98655.77;105431;1284;67183;-55
2023/12/23 08:32:55;;;;;;;9.00;5.60;;;;;;;2.94;67.83;98658.00;105960;1288;71686;-59
2023/12/23 08:35:43;;;;;;;22.40;10.80;;;;;;;2.86;67.35;98661.38;105389;1286;61489;-57
2023/12/23 08:38:29;;;;;;;7.80;1.60;;;;;;;2.64;67.42;98663.60;105391;1285;60872;-57
2023/12/23 08:41:16;;;;;;;6.50;1.40;;;;;;;2.49;67.59;98664.86;105355;1286;72392;-58
2023/12/23 08:44:03;;;;;;;3.70;1.00;;;;;;;2.50;67.89;98663.48;105406;1285;67396;-59
2023/12/23 08:46:49;;;;;;;3.00;0.90;;;;;;;2.79;67.53;98659.77;105319;1285;71711;-58
2023/12/23 08:49:41;;;;;;;4.20;1.10;;;;;;;2.87;67.60;98671.22;105408;1285;61664;-59
2023/12/23 08:52:27;;;;;;;6.10;1.00;;;;;;;2.82;67.94;98673.00;105342;1288;60479;-55
2023/12/23 08:55:14;;;;;;;5.50;0.70;;;;;;;2.79;67.81;98676.29;105371;1288;74373;-54
2023/12/23 08:58:00;;;;;;;6.30;4.60;;;;;;;2.74;67.69;98665.80;105431;1288;67980;-57
2023/12/23 09:00:46;;;;;;;;;;;;;;;2.65;67.62;98674.62;105535;1286;71296;-53
2023/12/23 09:03:32;;;;;;;;;;;;;;;2.55;67.69;98674.48;105445;1288;60697;-54
2023/12/23 09:06:19;;;;;;;8.40;1.20;;;;;;;2.48;67.77;98677.13;105438;1284;60469;-56
2023/12/23 09:09:05;;;;;;;4.10;0.90;;;;;;;2.59;67.87;98676.60;105440;1286;75130;-54
2023/12/23 09:11:51;;;;;;;3.20;1.00;;;;;;;2.61;67.77;98672.81;105453;1286;67449;-59
2023/12/23 09:14:38;;;;;;;;;;;;;;;2.78;67.70;98668.48;105366;1286;75220;-56
2023/12/23 09:17:24;;;;;;;23.00;3.40;;;;;;;2.85;67.70;98668.02;105413;1288;60549;-57
2023/12/23 09:20:10;;;;;;;5.80;0.90;;;;;;;2.84;67.67;98667.19;105398;1286;62086;-55
2023/12/23 09:22:57;;;;;;;7.90;1.30;;;;;;;2.87;67.91;98679.23;105319;1285;72609;-58
2023/12/23 09:25:43;;;;;;;7.20;1.20;;;;;;;2.90;67.71;98680.20;105224;1288;70520;-58
2023/12/23 09:28:30;;;;;;;7.10;1.30;;;;;;;2.97;67.70;98673.61;105325;1288;75866;-58
2023/12/23 09:31:16;;;;;;;80.50;31.90;;;;;;;2.92;67.34;98672.16;105332;1286;60326;-56
2023/12/23 09:34:02;;;;;;;82.20;40.80;;;;;;;2.93;67.53;98667.55;105366;1288;62704;-57
2023/12/23 09:36:48;;;;;;;6.00;1.10;;;;;;;3.04;67.52;98670.09;105250;1286;76448;-55
2023/12/23 09:39:35;;;;;;;6.30;0.80;;;;;;;3.14;67.57;98670.56;105355;1284;68134;-58
2023/12/23 09:42:22;;;;;;;7.50;1.30;;;;;;;3.12;67.29;98669.60;101755;1286;5005937;-58
2023/12/23 09:45:13;;;;;;;77.00;31.90;;;;;;;3.10;67.25;98665.56;105358;1286;60421;-57
2023/12/23 09:48:00;;;;;;;269.50;96.00;;;;;;;3.18;67.18;98660.11;106320;1284;73197;-57
2023/12/23 09:50:46;;;;;;;13.20;5.70;;;;;;;3.24;66.79;98659.83;106647;1285;68745;-54
2023/12/23 09:53:37;;;;;;;9.40;1.30;;;;;;;3.22;66.86;98658.51;105457;1286;71667;-55
2023/12/23 09:56:27;;;;;;;6.80;1.30;;;;;;;3.29;67.18;98646.29;106231;1285;60373;-57
2023/12/23 09:59:14;;;;;;;5.60;1.20;;;;;;;3.52;66.90;98657.62;106164;1285;60563;-57
2023/12/23 10:02:00;;;;;;;9.80;1.30;;;;;;;3.72;66.44;98654.32;105347;1286;75155;-57
2023/12/23 10:04:46;;;;;;;338.30;127.70;;;;;;;3.60;66.43;98653.89;105447;1288;68430;-57
2023/12/23 10:07:33;;;;;;;7.60;1.30;;;;;;;3.63;66.15;98653.48;105436;1286;74025;-58
2023/12/23 10:10:19;;;;;;;6.70;1.30;;;;;;;3.86;66.74;98661.86;105420;1285;60350;-57
2023/12/23 10:13:05;;;;;;;40.80;7.30;;;;;;;4.18;66.44;98670.73;105450;1287;61028;-53
2023/12/23 10:15:51;;;;;;;3.80;1.20;;;;;;;3.96;66.22;98672.58;105478;1285;76168;-57
2023/12/23 10:18:40;;;;;;;10.60;3.10;;;;;;;3.78;66.61;98670.38;105360;1284;67132;-57
2023/12/23 10:21:26;;;;;;;7.90;2.10;;;;;;;3.83;66.59;98671.98;105297;1290;72298;-53
2023/12/23 10:24:12;;;;;;;15.40;1.90;;;;;;;3.89;66.41;98676.81;105306;1286;60732;-57
2023/12/23 10:26:59;;;;;;;10.30;1.50;;;;;;;3.81;66.40;98670.65;105367;1287;60431;-56
2023/12/23 10:29:50;;;;;;;7.30;2.10;;;;;;;3.92;66.59;98667.89;105398;1288;72440;-55
2023/12/23 10:32:38;;;;;;;11.70;1.90;;;;;;;3.88;66.19;98650.23;105348;1286;67288;-58
2023/12/23 10:35:28;;;;;;;66.90;28.50;;;;;;;3.94;66.47;98651.65;105339;1288;73220;-56
2023/12/23 10:38:16;;;;;;;8.00;1.80;;;;;;;4.35;66.33;98650.56;105356;1284;60620;-58
2023/12/23 10:41:11;;;;;;;7.90;1.30;;;;;;;4.65;64.90;98646.62;105383;1285;60524;-57
2023/12/23 10:43:59;;;;;;;8.00;2.60;;;;;;;5.08;65.56;98644.67;105443;1288;72367;-57
2023/12/23 10:46:46;;;;;;;7.80;1.50;;;;;;;5.51;64.39;98635.67;105406;1286;69408;-55
2023/12/23 10:49:33;;;;;;;5.20;1.40;;;;;;;5.96;64.62;98639.71;105446;1288;74027;-58
2023/12/23 10:52:20;;;;;;;11.40;1.70;;;;;;;6.28;63.75;98639.23;105438;1288;59656;-57
2023/12/23 10:55:10;;;;;;;204.50;84.40;;;;;;;6.68;64.54;98635.92;105430;1286;60574;-58
2023/12/23 10:57:57;;;;;;;24.30;4.40;;;;;;;6.64;62.02;98633.15;105454;1286;72453;-54
2023/12/23 11:00:44;;;;;;;12.30;3.50;;;;;;;6.31;62.28;98652.33;105397;1288;71181;-57
2023/12/23 11:03:32;;;;;;;10.40;1.90;;;;;;;6.24;63.27;98647.09;105407;1289;72389;-57
2023/12/23 11:06:20;;;;;;;3.50;1.40;;;;;;;6.61;62.69;98644.39;105337;1292;60376;-57
2023/12/23 11:09:08;;;;;;;6.70;2.20;;;;;;;6.20;61.76;98648.21;105392;1285;64419;-59
2023/12/23 11:11:54;;;;;;;4.80;1.40;;;;;;;5.46;62.49;98646.90;105313;1286;75143;-54
2023/12/23 11:14:41;;;;;;;;;;;;;;;5.19;63.00;98653.27;105338;1288;67787;-58
2023/12/23 11:17:29;;;;;;;4.00;1.20;;;;;;;4.88;62.68;98647.59;105357;1287;72836;-59
2023/12/23 11:20:36;;;;;;;8.40;1.60;;;;;;;4.43;63.03;98654.13;105377;1289;60766;-58
2023/12/23 11:23:33;;;;;;;10.10;1.90;;;;;;;4.19;63.40;98658.60;105425;1289;60512;-56
2023/12/23 11:26:41;;;;;;;;;;;;;;;3.99;63.62;98658.19;106716;1285;72485;-58
2023/12/23 11:29:28;;;;;;;23.50;5.70;;;;;;;3.95;64.08;98667.13;106760;1285;68354;-58
2023/12/23 11:32:14;;;;;;;5.10;1.40;;;;;;;4.12;63.96;98663.88;106557;1286;70521;-56
2023/12/23 11:35:03;;;;;;;69.30;31.10;;;;;;;4.18;63.35;98655.90;106725;1285;58757;-60
2023/12/23 11:38:00;;;;;;;8.90;1.70;;;;;;;4.10;63.44;98659.32;106067;1287;60572;-58
2023/12/23 11:40:49;;;;;;;7.40;1.30;;;;;;;4.16;63.48;98658.33;106729;1286;72609;-59
2023/12/23 11:43:36;;;;;;;7.30;1.40;;;;;;;4.17;63.57;98663.91;106701;1286;67430;-59
2023/12/23 11:46:27;;;;;;;7.80;1.20;;;;;;;4.31;63.47;98668.55;106116;1285;72138;-57
2023/12/23 11:49:13;;;;;;;4.60;1.20;;;;;;;4.57;63.81;98660.80;105394;1286;60380;-58
2023/12/23 11:51:59;;;;;;;130.20;61.50;;;;;;;4.71;62.67;98656.70;105375;1286;61588;-58
2023/12/23 11:54:46;;;;;;;9.40;1.30;;;;;;;4.44;63.03;98661.10;105405;1287;76395;-58
2023/12/23 11:57:33;;;;;;;8.90;2.90;;;;;;;4.32;63.31;98666.14;105385;1285;67233;-58
2023/12/23 12:00:19;;;;;;;6.80;1.70;;;;;;;4.29;63.61;98671.00;105589;1289;73052;-58
2023/12/23 12:03:06;;;;;;;9.80;1.50;;;;;;;4.76;63.78;98662.73;105428;1289;60511;-54
2023/12/23 12:05:56;;;;;;;7.10;1.90;;;;;;;4.85;62.93;98665.92;105586;1285;60546;-56
2023/12/23 12:08:42;;;;;;;10.00;2.00;;;;;;;4.70;62.94;98670.21;105837;1285;72603;-57
2023/12/23 12:11:29;;;;;;;10.50;1.80;;;;;;;4.88;63.51;98670.64;105399;1286;67350;-58
2023/12/23 12:14:16;;;;;;;56.80;26.80;;;;;;;5.05;62.32;98672.10;105443;1286;73888;-56
2023/12/23 12:17:02;;;;;;;7.60;1.90;;;;;;;4.58;62.56;98673.41;105458;1285;59248;-57
2023/12/23 12:19:49;;;;;;;9.40;2.40;;;;;;;4.57;63.30;98674.11;105392;1286;61699;-60
2023/12/23 12:22:35;;;;;;;;;;;;;;;4.81;63.05;98667.89;105493;1284;72509;-54
2023/12/23 12:25:21;;;;;;;;;;;;;;;4.95;63.47;98662.77;105481;1285;67860;-59
2023/12/23 12:28:07;;;;;;;;;;;;;;;4.81;62.49;98663.13;105448;1286;71943;-57
2023/12/23 12:30:54;;;;;;;6.20;1.70;;;;;;;4.63;63.09;98666.80;105462;1285;60571;-54
2023/12/23 12:33:41;;;;;;;;;;;;;;;4.56;63.44;98669.36;105401;1285;60460;-53
2023/12/23 12:36:27;;;;;;;9.80;1.70;;;;;;;4.39;62.97;98671.29;105258;1284;72457;-58
2023/12/23 12:39:14;;;;;;;4.30;1.30;;;;;;;4.24;63.50;98672.48;105460;1286;68424;-57
2023/12/23 12:42:00;;;;;;;9.00;1.10;;;;;;;4.15;63.39;98675.92;105337;1288;73957;-57
2023/12/23 12:44:47;;;;;;;3.80;1.50;;;;;;;4.02;63.48;98687.62;105458;1288;62486;-57
2023/12/23 12:47:37;;;;;;;10.30;1.70;;;;;;;3.90;63.75;98698.25;105441;1285;60447;-52
2023/12/23 12:50:26;;;;;;;3.90;1.50;;;;;;;3.80;63.88;98707.31;105411;1286;73315;-56
2023/12/23 12:53:16;;;;;;;8.80;1.30;;;;;;;3.71;64.14;98707.66;105287;1288;70034;-56
2023/12/23 12:56:14;;;;;;;4.30;1.40;;;;;;;3.64;64.35;98713.25;105388;1285;71702;-58
2023/12/23 12:59:00;;;;;;;4.70;1.20;;;;;;;3.55;64.63;98712.08;106695;1284;58910;-59
2023/12/23 13:01:46;;;;;;;193.60;121.70;;;;;;;3.48;65.00;98717.48;106670;1285;59975;-61
2023/12/23 13:04:32;;;;;;;7.90;1.60;;;;;;;3.43;65.38;98715.02;106720;1285;72726;-59
2023/12/23 13:07:18;;;;;;;8.90;1.40;;;;;;;3.38;65.47;98718.67;106734;1285;68195;-59
2023/12/23 13:10:05;;;;;;;5.20;1.00;;;;;;;3.35;65.73;98728.10;106722;1283;72322;-59
2023/12/23 13:12:51;;;;;;;;;;;;;;;3.33;65.85;98729.16;106627;1285;58083;-58
2023/12/23 13:15:36;;;;;;;8.70;2.20;;;;;;;3.29;65.84;98733.30;106727;1284;58527;-57